Flight Track Log - Related Links

Times and Time Zones

All times are in EDT time to prevent confusion due to time zone crossing. See the MAL7056 flight status page for this flight to view local times or setup timezone preferences in your user account.

Time Position Orientation Groundspeed Altitude Reporting Facility
EDT Latitude Longitude Course Direction KTS MPH feet Rate Location/Type
Thu 04:25:21 PM 48.3500 -81.3167 169° South 120 138 7,600  Level Toronto Center
Thu 04:26:00 PM 48.2656 -81.2834 168° South  Level Estimated
Thu 04:26:21 PM 48.3167 -81.3167 180° South 130 150 8,500  Level Toronto Center
Thu 04:27:00 PM 48.2221 -81.2701 169° South  Level Estimated
Thu 04:27:21 PM 48.2833 -81.3167 180° South 130 150 9,500  Level Toronto Center
Thu 04:28:00 PM 48.1787 -81.2569 169° South  Level Estimated
Thu 04:28:21 PM 48.2500 -81.2833 146° Southeast 130 150 10,400  Level Toronto Center
Thu 04:29:00 PM 48.1353 -81.2437 169° South  Level Estimated
Thu 04:29:21 PM 48.2167 -81.2833 180° South 140 161 10,100  Level Toronto Center
Thu 04:30:00 PM 48.0918 -81.2306 169° South  Level Estimated
Thu 04:32:00 PM 48.1496 -81.2355 169° South  Level FlightAware Approximate
Thu 04:39:00 PM 47.8448 -81.1483 169° South  Level FlightAware Approximate
Thu 04:40:00 PM 47.8012 -81.1359 169° South  Level FlightAware Approximate
Thu 04:40:04 PM 47.7167 -81.1167 169° South 310 357 7,000  Level Toronto Center
Thu 04:41:00 PM 47.7577 -81.1236 169° South  Level FlightAware Approximate
Thu 04:42:00 PM 47.7142 -81.1109 169° South  Level FlightAware Approximate
Thu 04:42:03 PM 47.6333 -81.0833 165° South 160 184 7,000  Level Toronto Center
Thu 04:43:00 PM 47.6707 -81.0978 169° South  Level FlightAware Approximate
Thu 04:43:04 PM 47.5833 -81.0833 180° South 160 184 7,100  Level Toronto Center
Thu 04:44:00 PM 47.6273 -81.0847 169° South  Level FlightAware Approximate
Thu 04:44:03 PM 47.5500 -81.0667 161° South 170 196 7,000  Level Toronto Center
Thu 04:45:00 PM 47.5838 -81.0716 169° South  Level FlightAware Approximate
Thu 04:45:03 PM 47.5000 -81.0667 180° South 170 196 7,100  Level Toronto Center
Thu 04:46:03 PM 47.4500 -81.0333 156° South 170 196 7,000 -50 Descending Toronto Center
Thu 04:47:03 PM 47.4000 -81.0333 180° South 170 196 7,000  Level Toronto Center
Thu 04:48:03 PM 47.3667 -81.0167 161° South 170 196 7,000  Level Toronto Center
Thu 04:49:03 PM 47.3167 -81.0000 167° South 170 196 7,000  Level Toronto Center
Thu 04:50:03 PM 47.2667 -80.9833 167° South 170 196 7,000  Level Toronto Center
Thu 04:51:04 PM 47.2167 -80.9833 180° South 170 196 7,000 50 Level Toronto Center
Thu 04:52:04 PM 47.1833 -80.9500 146° Southeast 170 196 7,100 -50 Climbing Toronto Center
Thu 04:53:04 PM 47.1333 -80.9333 167° South 170 196 6,900 -350 Descending Toronto Center
Thu 04:54:04 PM 47.0833 -80.9333 180° South 180 207 6,400 -500 Descending Toronto Center
Thu 04:55:04 PM 47.0500 -80.9000 146° Southeast 180 207 5,900 -650 Descending Toronto Center
Thu 04:56:04 PM 47.0000 -80.9000 180° South 190 219 5,100 -800 Descending Toronto Center

Login

Don't have an account? Register now (free) for customized features, flight alerts, and more!